sensor_id;sensor_type;location;lat;lon;timestamp;P1;durP1;ratioP1;P2;durP2;ratioP2
4011;SDS011;2020;48.682;9.024;2023-06-10T00:01:18;5.00;;;4.73;;
4011;SDS011;2020;48.682;9.024;2023-06-10T00:03:43;5.80;;;5.40;;
4011;SDS011;2020;48.682;9.024;2023-06-10T00:06:08;5.67;;;5.47;;
4011;SDS011;2020;48.682;9.024;2023-06-10T00:08:33;4.60;;;4.40;;
4011;SDS011;2020;48.682;9.024;2023-06-10T00:10:59;5.57;;;5.27;;
4011;SDS011;2020;48.682;9.024;2023-06-10T00:13:25;5.40;;;5.10;;
4011;SDS011;2020;48.682;9.024;2023-06-10T00:15:50;5.80;;;5.50;;
4011;SDS011;2020;48.682;9.024;2023-06-10T00:18:15;5.37;;;5.17;;
4011;SDS011;2020;48.682;9.024;2023-06-10T00:20:41;4.97;;;4.67;;
4011;SDS011;2020;48.682;9.024;2023-06-10T00:23:07;6.00;;;5.70;;
4011;SDS011;2020;48.682;9.024;2023-06-10T00:25:33;5.50;;;5.00;;
4011;SDS011;2020;48.682;9.024;2023-06-10T00:27:58;5.37;;;5.00;;
4011;SDS011;2020;48.682;9.024;2023-06-10T00:30:24;5.97;;;5.67;;
4011;SDS011;2020;48.682;9.024;2023-06-10T00:32:49;7.10;;;6.70;;
4011;SDS011;2020;48.682;9.024;2023-06-10T00:35:15;5.80;;;5.37;;
4011;SDS011;2020;48.682;9.024;2023-06-10T00:37:40;6.00;;;5.60;;
4011;SDS011;2020;48.682;9.024;2023-06-10T00:40:05;5.63;;;5.33;;
4011;SDS011;2020;48.682;9.024;2023-06-10T00:42:33;5.17;;;4.77;;
4011;SDS011;2020;48.682;9.024;2023-06-10T00:44:58;5.50;;;5.30;;
4011;SDS011;2020;48.682;9.024;2023-06-10T00:47:24;5.67;;;5.30;;
4011;SDS011;2020;48.682;9.024;2023-06-10T00:49:50;6.10;;;5.80;;
4011;SDS011;2020;48.682;9.024;2023-06-10T00:52:16;4.97;;;4.77;;
4011;SDS011;2020;48.682;9.024;2023-06-10T00:54:42;5.93;;;5.50;;
4011;SDS011;2020;48.682;9.024;2023-06-10T00:57:08;6.43;;;5.93;;
4011;SDS011;2020;48.682;9.024;2023-06-10T00:59:34;6.13;;;5.80;;
4011;SDS011;2020;48.682;9.024;2023-06-10T01:02:00;4.90;;;4.60;;
4011;SDS011;2020;48.682;9.024;2023-06-10T01:04:27;5.43;;;5.17;;
4011;SDS011;2020;48.682;9.024;2023-06-10T01:14:33;5.40;;;5.20;;
4011;SDS011;2020;48.682;9.024;2023-06-10T01:16:59;6.03;;;5.73;;
4011;SDS011;2020;48.682;9.024;2023-06-10T01:19:26;5.57;;;5.10;;
4011;SDS011;2020;48.682;9.024;2023-06-10T01:21:51;6.77;;;5.90;;
4011;SDS011;2020;48.682;9.024;2023-06-10T01:24:16;6.60;;;6.20;;
4011;SDS011;2020;48.682;9.024;2023-06-10T01:26:43;6.30;;;5.80;;
4011;SDS011;2020;48.682;9.024;2023-06-10T01:29:19;6.37;;;5.97;;
4011;SDS011;2020;48.682;9.024;2023-06-10T01:32:03;7.00;;;6.50;;
4011;SDS011;2020;48.682;9.024;2023-06-10T01:34:40;6.50;;;6.10;;
4011;SDS011;2020;48.682;9.024;2023-06-10T01:37:08;6.33;;;5.97;;
4011;SDS011;2020;48.682;9.024;2023-06-10T01:39:36;6.73;;;6.37;;
4011;SDS011;2020;48.682;9.024;2023-06-10T01:42:02;6.30;;;5.97;;
4011;SDS011;2020;48.682;9.024;2023-06-10T01:44:29;6.30;;;6.00;;
4011;SDS011;2020;48.682;9.024;2023-06-10T01:46:54;6.70;;;6.30;;
4011;SDS011;2020;48.682;9.024;2023-06-10T01:49:20;6.13;;;5.77;;
4011;SDS011;2020;48.682;9.024;2023-06-10T01:51:47;6.50;;;6.10;;
4011;SDS011;2020;48.682;9.024;2023-06-10T01:54:12;6.70;;;6.10;;
4011;SDS011;2020;48.682;9.024;2023-06-10T01:56:37;5.40;;;5.10;;
4011;SDS011;2020;48.682;9.024;2023-06-10T01:59:02;5.77;;;5.37;;
4011;SDS011;2020;48.682;9.024;2023-06-10T02:01:28;6.70;;;6.30;;
4011;SDS011;2020;48.682;9.024;2023-06-10T02:03:53;6.70;;;6.20;;
4011;SDS011;2020;48.682;9.024;2023-06-10T02:06:19;7.60;;;7.13;;
4011;SDS011;2020;48.682;9.024;2023-06-10T02:08:44;7.40;;;6.80;;
4011;SDS011;2020;48.682;9.024;2023-06-10T02:11:09;6.57;;;6.07;;
4011;SDS011;2020;48.682;9.024;2023-06-10T02:13:35;6.63;;;6.17;;
4011;SDS011;2020;48.682;9.024;2023-06-10T02:16:00;6.40;;;6.00;;
4011;SDS011;2020;48.682;9.024;2023-06-10T02:18:26;8.37;;;7.50;;
4011;SDS011;2020;48.682;9.024;2023-06-10T02:20:52;7.77;;;7.27;;
4011;SDS011;2020;48.682;9.024;2023-06-10T02:23:18;7.70;;;7.20;;
4011;SDS011;2020;48.682;9.024;2023-06-10T02:25:43;7.10;;;6.60;;
4011;SDS011;2020;48.682;9.024;2023-06-10T02:28:09;7.30;;;6.90;;
4011;SDS011;2020;48.682;9.024;2023-06-10T02:30:34;6.70;;;6.30;;
4011;SDS011;2020;48.682;9.024;2023-06-10T02:33:00;6.53;;;6.13;;
4011;SDS011;2020;48.682;9.024;2023-06-10T02:35:26;7.67;;;6.90;;
4011;SDS011;2020;48.682;9.024;2023-06-10T02:37:51;7.20;;;6.80;;
4011;SDS011;2020;48.682;9.024;2023-06-10T02:40:16;6.90;;;6.50;;
4011;SDS011;2020;48.682;9.024;2023-06-10T02:42:41;7.50;;;7.00;;
4011;SDS011;2020;48.682;9.024;2023-06-10T02:45:07;7.47;;;6.90;;
4011;SDS011;2020;48.682;9.024;2023-06-10T02:47:33;7.23;;;6.63;;
4011;SDS011;2020;48.682;9.024;2023-06-10T02:49:58;8.13;;;7.33;;
4011;SDS011;2020;48.682;9.024;2023-06-10T02:52:23;7.83;;;7.23;;
4011;SDS011;2020;48.682;9.024;2023-06-10T02:54:49;7.13;;;6.67;;
4011;SDS011;2020;48.682;9.024;2023-06-10T02:57:15;7.47;;;6.80;;
4011;SDS011;2020;48.682;9.024;2023-06-10T02:59:40;6.43;;;5.93;;
4011;SDS011;2020;48.682;9.024;2023-06-10T03:02:06;7.43;;;7.03;;
4011;SDS011;2020;48.682;9.024;2023-06-10T03:04:31;6.93;;;6.47;;
4011;SDS011;2020;48.682;9.024;2023-06-10T03:06:56;7.27;;;6.67;;
4011;SDS011;2020;48.682;9.024;2023-06-10T03:09:21;6.83;;;6.33;;
4011;SDS011;2020;48.682;9.024;2023-06-10T03:11:47;7.03;;;6.53;;
4011;SDS011;2020;48.682;9.024;2023-06-10T03:14:12;7.00;;;6.40;;
4011;SDS011;2020;48.682;9.024;2023-06-10T03:16:38;6.90;;;6.47;;
4011;SDS011;2020;48.682;9.024;2023-06-10T03:19:07;7.63;;;7.03;;
4011;SDS011;2020;48.682;9.024;2023-06-10T03:21:33;7.50;;;7.00;;
4011;SDS011;2020;48.682;9.024;2023-06-10T03:23:59;7.93;;;7.50;;
4011;SDS011;2020;48.682;9.024;2023-06-10T03:26:25;8.40;;;7.80;;
4011;SDS011;2020;48.682;9.024;2023-06-10T03:28:52;6.87;;;6.47;;
4011;SDS011;2020;48.682;9.024;2023-06-10T03:31:17;7.60;;;7.07;;
4011;SDS011;2020;48.682;9.024;2023-06-10T03:33:43;8.63;;;7.97;;
4011;SDS011;2020;48.682;9.024;2023-06-10T03:36:08;7.37;;;6.77;;
4011;SDS011;2020;48.682;9.024;2023-06-10T03:38:33;8.40;;;7.77;;
4011;SDS011;2020;48.682;9.024;2023-06-10T03:40:59;6.93;;;6.63;;
4011;SDS011;2020;48.682;9.024;2023-06-10T03:43:24;7.80;;;7.07;;
4011;SDS011;2020;48.682;9.024;2023-06-10T03:45:50;7.50;;;6.87;;
4011;SDS011;2020;48.682;9.024;2023-06-10T03:48:15;7.57;;;7.07;;
4011;SDS011;2020;48.682;9.024;2023-06-10T03:50:41;7.10;;;6.70;;
4011;SDS011;2020;48.682;9.024;2023-06-10T03:53:06;8.20;;;7.60;;
4011;SDS011;2020;48.682;9.024;2023-06-10T03:55:32;7.60;;;7.10;;
4011;SDS011;2020;48.682;9.024;2023-06-10T03:57:57;8.10;;;7.57;;
4011;SDS011;2020;48.682;9.024;2023-06-10T04:00:23;7.37;;;6.77;;
4011;SDS011;2020;48.682;9.024;2023-06-10T04:02:48;8.90;;;5.90;;
4011;SDS011;2020;48.682;9.024;2023-06-10T04:05:16;7.03;;;6.43;;
4011;SDS011;2020;48.682;9.024;2023-06-10T04:07:42;6.73;;;6.33;;
4011;SDS011;2020;48.682;9.024;2023-06-10T04:10:09;8.80;;;7.40;;
4011;SDS011;2020;48.682;9.024;2023-06-10T04:12:35;7.07;;;6.67;;
4011;SDS011;2020;48.682;9.024;2023-06-10T04:15:02;8.03;;;7.43;;
4011;SDS011;2020;48.682;9.024;2023-06-10T04:17:28;7.50;;;6.90;;
4011;SDS011;2020;48.682;9.024;2023-06-10T04:19:53;6.80;;;6.30;;
4011;SDS011;2020;48.682;9.024;2023-06-10T04:22:19;8.13;;;7.40;;
4011;SDS011;2020;48.682;9.024;2023-06-10T04:24:45;7.10;;;6.63;;
4011;SDS011;2020;48.682;9.024;2023-06-10T04:27:10;8.40;;;7.33;;
4011;SDS011;2020;48.682;9.024;2023-06-10T04:29:36;7.40;;;6.00;;
4011;SDS011;2020;48.682;9.024;2023-06-10T04:32:01;7.17;;;6.50;;
4011;SDS011;2020;48.682;9.024;2023-06-10T04:34:27;7.53;;;7.03;;
4011;SDS011;2020;48.682;9.024;2023-06-10T04:36:52;6.60;;;6.23;;
4011;SDS011;2020;48.682;9.024;2023-06-10T04:39:18;8.90;;;8.00;;
4011;SDS011;2020;48.682;9.024;2023-06-10T04:41:43;8.23;;;7.53;;
4011;SDS011;2020;48.682;9.024;2023-06-10T04:44:09;8.17;;;7.67;;
4011;SDS011;2020;48.682;9.024;2023-06-10T04:46:35;8.37;;;7.70;;
4011;SDS011;2020;48.682;9.024;2023-06-10T04:49:00;8.07;;;7.40;;
4011;SDS011;2020;48.682;9.024;2023-06-10T04:51:26;7.63;;;6.93;;
4011;SDS011;2020;48.682;9.024;2023-06-10T04:53:51;7.27;;;6.77;;
4011;SDS011;2020;48.682;9.024;2023-06-10T04:56:17;7.30;;;6.73;;
4011;SDS011;2020;48.682;9.024;2023-06-10T04:58:42;8.20;;;7.50;;
4011;SDS011;2020;48.682;9.024;2023-06-10T05:01:08;7.83;;;7.20;;
4011;SDS011;2020;48.682;9.024;2023-06-10T05:03:33;7.63;;;7.03;;
4011;SDS011;2020;48.682;9.024;2023-06-10T05:05:58;6.90;;;6.50;;
4011;SDS011;2020;48.682;9.024;2023-06-10T05:08:23;7.27;;;6.87;;
4011;SDS011;2020;48.682;9.024;2023-06-10T05:10:49;7.07;;;6.67;;
4011;SDS011;2020;48.682;9.024;2023-06-10T05:13:14;6.90;;;6.40;;
4011;SDS011;2020;48.682;9.024;2023-06-10T05:15:41;6.97;;;6.47;;
4011;SDS011;2020;48.682;9.024;2023-06-10T05:18:09;7.77;;;7.17;;
4011;SDS011;2020;48.682;9.024;2023-06-10T05:20:34;7.57;;;7.07;;
4011;SDS011;2020;48.682;9.024;2023-06-10T05:23:00;7.20;;;6.17;;
4011;SDS011;2020;48.682;9.024;2023-06-10T05:25:26;6.43;;;6.13;;
4011;SDS011;2020;48.682;9.024;2023-06-10T05:27:52;6.67;;;6.20;;
4011;SDS011;2020;48.682;9.024;2023-06-10T05:30:18;5.23;;;5.03;;
4011;SDS011;2020;48.682;9.024;2023-06-10T05:32:43;4.23;;;4.03;;
4011;SDS011;2020;48.682;9.024;2023-06-10T05:35:09;4.20;;;4.03;;
4011;SDS011;2020;48.682;9.024;2023-06-10T05:37:34;4.37;;;4.17;;
4011;SDS011;2020;48.682;9.024;2023-06-10T05:40:01;3.90;;;3.70;;
4011;SDS011;2020;48.682;9.024;2023-06-10T05:42:27;4.40;;;4.10;;
4011;SDS011;2020;48.682;9.024;2023-06-10T05:44:52;4.43;;;4.30;;
4011;SDS011;2020;48.682;9.024;2023-06-10T05:47:17;3.80;;;3.60;;
4011;SDS011;2020;48.682;9.024;2023-06-10T05:49:43;4.47;;;4.17;;
4011;SDS011;2020;48.682;9.024;2023-06-10T05:52:10;3.83;;;3.73;;
4011;SDS011;2020;48.682;9.024;2023-06-10T05:54:35;4.40;;;4.20;;
4011;SDS011;2020;48.682;9.024;2023-06-10T05:57:01;4.47;;;4.17;;
4011;SDS011;2020;48.682;9.024;2023-06-10T05:59:26;4.67;;;4.47;;
4011;SDS011;2020;48.682;9.024;2023-06-10T06:01:52;4.03;;;3.70;;
4011;SDS011;2020;48.682;9.024;2023-06-10T06:04:17;4.73;;;4.43;;
4011;SDS011;2020;48.682;9.024;2023-06-10T06:06:42;4.07;;;3.83;;
4011;SDS011;2020;48.682;9.024;2023-06-10T06:09:07;4.20;;;4.00;;
4011;SDS011;2020;48.682;9.024;2023-06-10T06:11:34;4.13;;;3.97;;
4011;SDS011;2020;48.682;9.024;2023-06-10T06:13:59;5.23;;;4.90;;
4011;SDS011;2020;48.682;9.024;2023-06-10T06:16:25;4.37;;;4.17;;
4011;SDS011;2020;48.682;9.024;2023-06-10T06:18:50;4.90;;;4.50;;
4011;SDS011;2020;48.682;9.024;2023-06-10T06:21:15;4.47;;;4.10;;
4011;SDS011;2020;48.682;9.024;2023-06-10T06:23:41;4.27;;;4.07;;
4011;SDS011;2020;48.682;9.024;2023-06-10T06:26:06;4.13;;;3.90;;
4011;SDS011;2020;48.682;9.024;2023-06-10T06:28:31;4.53;;;4.27;;
4011;SDS011;2020;48.682;9.024;2023-06-10T06:30:56;4.03;;;3.73;;
4011;SDS011;2020;48.682;9.024;2023-06-10T06:33:22;4.63;;;4.43;;
4011;SDS011;2020;48.682;9.024;2023-06-10T06:35:47;4.57;;;4.37;;
4011;SDS011;2020;48.682;9.024;2023-06-10T06:38:12;4.40;;;4.20;;
4011;SDS011;2020;48.682;9.024;2023-06-10T06:40:37;4.50;;;4.30;;
4011;SDS011;2020;48.682;9.024;2023-06-10T06:43:03;4.07;;;3.90;;
4011;SDS011;2020;48.682;9.024;2023-06-10T06:45:28;4.23;;;4.00;;
4011;SDS011;2020;48.682;9.024;2023-06-10T06:47:53;4.17;;;3.97;;
4011;SDS011;2020;48.682;9.024;2023-06-10T06:50:18;4.00;;;3.80;;
4011;SDS011;2020;48.682;9.024;2023-06-10T06:52:44;4.70;;;4.40;;
4011;SDS011;2020;48.682;9.024;2023-06-10T06:55:09;4.50;;;4.07;;
4011;SDS011;2020;48.682;9.024;2023-06-10T06:57:34;4.07;;;3.87;;
4011;SDS011;2020;48.682;9.024;2023-06-10T07:00:00;4.77;;;4.57;;
4011;SDS011;2020;48.682;9.024;2023-06-10T07:02:25;4.50;;;4.20;;
4011;SDS011;2020;48.682;9.024;2023-06-10T07:04:50;3.90;;;3.70;;
4011;SDS011;2020;48.682;9.024;2023-06-10T07:07:15;4.93;;;4.40;;
4011;SDS011;2020;48.682;9.024;2023-06-10T07:09:41;4.53;;;4.23;;
4011;SDS011;2020;48.682;9.024;2023-06-10T07:12:06;4.33;;;4.13;;
4011;SDS011;2020;48.682;9.024;2023-06-10T07:14:32;3.87;;;3.70;;
4011;SDS011;2020;48.682;9.024;2023-06-10T07:16:57;4.20;;;4.00;;
4011;SDS011;2020;48.682;9.024;2023-06-10T07:19:23;4.50;;;4.20;;
4011;SDS011;2020;48.682;9.024;2023-06-10T07:21:48;4.53;;;4.33;;
4011;SDS011;2020;48.682;9.024;2023-06-10T07:24:13;4.47;;;4.27;;
4011;SDS011;2020;48.682;9.024;2023-06-10T07:26:38;4.73;;;4.43;;
4011;SDS011;2020;48.682;9.024;2023-06-10T07:29:04;4.57;;;4.40;;
4011;SDS011;2020;48.682;9.024;2023-06-10T07:31:29;4.67;;;4.37;;
4011;SDS011;2020;48.682;9.024;2023-06-10T07:33:54;3.43;;;3.33;;
4011;SDS011;2020;48.682;9.024;2023-06-10T07:36:20;3.73;;;3.63;;
4011;SDS011;2020;48.682;9.024;2023-06-10T07:38:45;3.70;;;3.60;;
4011;SDS011;2020;48.682;9.024;2023-06-10T07:41:10;3.83;;;3.70;;
4011;SDS011;2020;48.682;9.024;2023-06-10T07:43:36;3.87;;;3.67;;
4011;SDS011;2020;48.682;9.024;2023-06-10T07:46:02;3.30;;;3.20;;
4011;SDS011;2020;48.682;9.024;2023-06-10T07:48:27;3.17;;;2.97;;
4011;SDS011;2020;48.682;9.024;2023-06-10T07:50:52;3.57;;;3.47;;
4011;SDS011;2020;48.682;9.024;2023-06-10T07:53:18;3.93;;;3.73;;
4011;SDS011;2020;48.682;9.024;2023-06-10T07:55:43;4.20;;;3.90;;
4011;SDS011;2020;48.682;9.024;2023-06-10T07:58:08;3.70;;;3.60;;
4011;SDS011;2020;48.682;9.024;2023-06-10T08:00:34;4.10;;;3.87;;
4011;SDS011;2020;48.682;9.024;2023-06-10T08:02:59;4.40;;;4.20;;
4011;SDS011;2020;48.682;9.024;2023-06-10T08:05:24;3.80;;;3.60;;
4011;SDS011;2020;48.682;9.024;2023-06-10T08:07:49;4.00;;;3.90;;
4011;SDS011;2020;48.682;9.024;2023-06-10T08:10:15;3.90;;;3.73;;
4011;SDS011;2020;48.682;9.024;2023-06-10T08:12:40;3.67;;;3.57;;
4011;SDS011;2020;48.682;9.024;2023-06-10T08:15:06;4.70;;;3.50;;
4011;SDS011;2020;48.682;9.024;2023-06-10T08:17:31;4.30;;;4.10;;
4011;SDS011;2020;48.682;9.024;2023-06-10T08:19:56;5.03;;;3.77;;
4011;SDS011;2020;48.682;9.024;2023-06-10T08:22:22;3.80;;;3.70;;
4011;SDS011;2020;48.682;9.024;2023-06-10T08:24:47;4.63;;;4.43;;
4011;SDS011;2020;48.682;9.024;2023-06-10T08:27:12;4.20;;;4.00;;
4011;SDS011;2020;48.682;9.024;2023-06-10T08:29:38;3.93;;;3.83;;
4011;SDS011;2020;48.682;9.024;2023-06-10T08:32:04;3.73;;;3.63;;
4011;SDS011;2020;48.682;9.024;2023-06-10T08:34:29;3.60;;;3.50;;
4011;SDS011;2020;48.682;9.024;2023-06-10T08:36:55;4.80;;;4.40;;
4011;SDS011;2020;48.682;9.024;2023-06-10T08:39:23;4.07;;;3.87;;
4011;SDS011;2020;48.682;9.024;2023-06-10T08:42:11;3.80;;;3.70;;
4011;SDS011;2020;48.682;9.024;2023-06-10T08:44:54;4.63;;;4.43;;
4011;SDS011;2020;48.682;9.024;2023-06-10T08:47:22;3.77;;;3.67;;
4011;SDS011;2020;48.682;9.024;2023-06-10T08:49:49;4.07;;;3.73;;
4011;SDS011;2020;48.682;9.024;2023-06-10T08:52:16;4.60;;;4.40;;
4011;SDS011;2020;48.682;9.024;2023-06-10T08:54:47;4.37;;;4.17;;
4011;SDS011;2020;48.682;9.024;2023-06-10T08:57:17;3.97;;;3.87;;
4011;SDS011;2020;48.682;9.024;2023-06-10T08:59:45;4.10;;;4.00;;
4011;SDS011;2020;48.682;9.024;2023-06-10T09:02:11;3.37;;;3.27;;
4011;SDS011;2020;48.682;9.024;2023-06-10T09:04:37;3.50;;;3.30;;
4011;SDS011;2020;48.682;9.024;2023-06-10T09:07:03;3.60;;;3.50;;
4011;SDS011;2020;48.682;9.024;2023-06-10T09:09:29;3.97;;;3.77;;
4011;SDS011;2020;48.682;9.024;2023-06-10T09:11:57;3.93;;;3.83;;
4011;SDS011;2020;48.682;9.024;2023-06-10T09:14:23;3.60;;;3.50;;
4011;SDS011;2020;48.682;9.024;2023-06-10T09:16:48;4.13;;;3.93;;
4011;SDS011;2020;48.682;9.024;2023-06-10T09:19:15;3.97;;;3.40;;
4011;SDS011;2020;48.682;9.024;2023-06-10T09:21:41;3.33;;;3.23;;
4011;SDS011;2020;48.682;9.024;2023-06-10T09:24:06;3.67;;;3.53;;
4011;SDS011;2020;48.682;9.024;2023-06-10T09:26:32;3.40;;;3.30;;
4011;SDS011;2020;48.682;9.024;2023-06-10T09:29:04;3.40;;;3.30;;
4011;SDS011;2020;48.682;9.024;2023-06-10T09:31:31;3.53;;;3.33;;
4011;SDS011;2020;48.682;9.024;2023-06-10T09:34:32;2.90;;;2.80;;
4011;SDS011;2020;48.682;9.024;2023-06-10T09:36:51;3.90;;;3.80;;
4011;SDS011;2020;48.682;9.024;2023-06-10T09:39:17;2.90;;;2.80;;
4011;SDS011;2020;48.682;9.024;2023-06-10T09:41:44;3.57;;;3.47;;
4011;SDS011;2020;48.682;9.024;2023-06-10T09:46:40;3.70;;;3.60;;
4011;SDS011;2020;48.682;9.024;2023-06-10T09:49:06;3.70;;;3.60;;
4011;SDS011;2020;48.682;9.024;2023-06-10T09:51:31;4.30;;;3.90;;
4011;SDS011;2020;48.682;9.024;2023-06-10T09:53:57;4.13;;;3.83;;
4011;SDS011;2020;48.682;9.024;2023-06-10T09:56:34;4.27;;;3.97;;
4011;SDS011;2020;48.682;9.024;2023-06-10T09:59:00;3.70;;;3.60;;
4011;SDS011;2020;48.682;9.024;2023-06-10T10:01:26;4.47;;;4.37;;
4011;SDS011;2020;48.682;9.024;2023-06-10T10:03:51;3.80;;;3.60;;
4011;SDS011;2020;48.682;9.024;2023-06-10T10:06:17;4.83;;;4.53;;
4011;SDS011;2020;48.682;9.024;2023-06-10T10:08:48;3.83;;;3.73;;
4011;SDS011;2020;48.682;9.024;2023-06-10T10:11:18;3.90;;;3.80;;
4011;SDS011;2020;48.682;9.024;2023-06-10T10:13:46;3.80;;;3.70;;
4011;SDS011;2020;48.682;9.024;2023-06-10T10:16:14;3.63;;;3.53;;
4011;SDS011;2020;48.682;9.024;2023-06-10T10:18:43;3.07;;;2.97;;
4011;SDS011;2020;48.682;9.024;2023-06-10T10:21:13;3.57;;;3.47;;
4011;SDS011;2020;48.682;9.024;2023-06-10T10:23:53;3.90;;;3.80;;
4011;SDS011;2020;48.682;9.024;2023-06-10T10:26:23;3.40;;;3.30;;
4011;SDS011;2020;48.682;9.024;2023-06-10T10:28:53;2.63;;;2.53;;
4011;SDS011;2020;48.682;9.024;2023-06-10T10:31:29;3.40;;;3.30;;
4011;SDS011;2020;48.682;9.024;2023-06-10T10:33:58;3.40;;;3.30;;
4011;SDS011;2020;48.682;9.024;2023-06-10T10:36:24;3.63;;;3.53;;
4011;SDS011;2020;48.682;9.024;2023-06-10T10:38:50;3.30;;;3.20;;
4011;SDS011;2020;48.682;9.024;2023-06-10T10:41:16;3.27;;;3.07;;
4011;SDS011;2020;48.682;9.024;2023-06-10T10:43:43;3.50;;;3.40;;
4011;SDS011;2020;48.682;9.024;2023-06-10T10:46:13;3.43;;;3.33;;
4011;SDS011;2020;48.682;9.024;2023-06-10T10:48:42;3.27;;;3.17;;
4011;SDS011;2020;48.682;9.024;2023-06-10T10:51:08;4.30;;;4.07;;
4011;SDS011;2020;48.682;9.024;2023-06-10T10:53:34;3.70;;;3.60;;
4011;SDS011;2020;48.682;9.024;2023-06-10T10:56:09;3.43;;;3.33;;
4011;SDS011;2020;48.682;9.024;2023-06-10T10:58:38;3.93;;;3.73;;
4011;SDS011;2020;48.682;9.024;2023-06-10T11:01:11;3.23;;;3.13;;
4011;SDS011;2020;48.682;9.024;2023-06-10T11:03:42;3.30;;;3.20;;
4011;SDS011;2020;48.682;9.024;2023-06-10T11:06:13;3.53;;;3.43;;
4011;SDS011;2020;48.682;9.024;2023-06-10T11:11:25;3.37;;;3.27;;
4011;SDS011;2020;48.682;9.024;2023-06-10T11:16:38;3.63;;;3.47;;
4011;SDS011;2020;48.682;9.024;2023-06-10T11:19:05;3.30;;;3.20;;
4011;SDS011;2020;48.682;9.024;2023-06-10T11:21:30;3.17;;;3.07;;
4011;SDS011;2020;48.682;9.024;2023-06-10T11:23:57;3.57;;;3.47;;
4011;SDS011;2020;48.682;9.024;2023-06-10T11:31:22;3.50;;;3.40;;
4011;SDS011;2020;48.682;9.024;2023-06-10T11:33:55;3.23;;;3.13;;
4011;SDS011;2020;48.682;9.024;2023-06-10T11:36:21;3.50;;;3.40;;
4011;SDS011;2020;48.682;9.024;2023-06-10T11:38:47;3.77;;;3.67;;
4011;SDS011;2020;48.682;9.024;2023-06-10T11:41:13;3.93;;;3.83;;
4011;SDS011;2020;48.682;9.024;2023-06-10T11:43:42;3.53;;;3.43;;
4011;SDS011;2020;48.682;9.024;2023-06-10T11:46:09;3.27;;;3.17;;
4011;SDS011;2020;48.682;9.024;2023-06-10T11:48:34;4.10;;;3.90;;
4011;SDS011;2020;48.682;9.024;2023-06-10T11:51:00;3.70;;;3.60;;
4011;SDS011;2020;48.682;9.024;2023-06-10T11:53:25;4.13;;;4.03;;
4011;SDS011;2020;48.682;9.024;2023-06-10T11:55:50;3.67;;;3.47;;
4011;SDS011;2020;48.682;9.024;2023-06-10T11:58:20;4.40;;;4.20;;
4011;SDS011;2020;48.682;9.024;2023-06-10T12:00:46;3.60;;;3.50;;
4011;SDS011;2020;48.682;9.024;2023-06-10T12:03:13;3.50;;;3.40;;
4011;SDS011;2020;48.682;9.024;2023-06-10T12:05:39;4.10;;;4.00;;
4011;SDS011;2020;48.682;9.024;2023-06-10T12:08:10;3.03;;;2.80;;
4011;SDS011;2020;48.682;9.024;2023-06-10T12:10:42;3.50;;;3.40;;
4011;SDS011;2020;48.682;9.024;2023-06-10T12:13:08;3.50;;;3.40;;
4011;SDS011;2020;48.682;9.024;2023-06-10T12:15:34;3.47;;;3.37;;
4011;SDS011;2020;48.682;9.024;2023-06-10T12:17:59;3.33;;;3.23;;
4011;SDS011;2020;48.682;9.024;2023-06-10T12:20:29;3.30;;;3.20;;
4011;SDS011;2020;48.682;9.024;2023-06-10T12:22:58;4.27;;;4.17;;
4011;SDS011;2020;48.682;9.024;2023-06-10T12:25:25;3.47;;;3.37;;
4011;SDS011;2020;48.682;9.024;2023-06-10T12:27:52;3.90;;;3.80;;
4011;SDS011;2020;48.682;9.024;2023-06-10T12:30:19;4.20;;;4.00;;
4011;SDS011;2020;48.682;9.024;2023-06-10T12:32:46;4.90;;;4.63;;
4011;SDS011;2020;48.682;9.024;2023-06-10T12:35:16;3.80;;;3.70;;
4011;SDS011;2020;48.682;9.024;2023-06-10T12:37:53;4.20;;;4.10;;
4011;SDS011;2020;48.682;9.024;2023-06-10T12:40:31;3.37;;;3.27;;
4011;SDS011;2020;48.682;9.024;2023-06-10T12:42:58;3.17;;;3.07;;
4011;SDS011;2020;48.682;9.024;2023-06-10T12:45:29;3.93;;;3.83;;
4011;SDS011;2020;48.682;9.024;2023-06-10T12:50:51;3.67;;;3.57;;
4011;SDS011;2020;48.682;9.024;2023-06-10T12:53:18;4.00;;;3.70;;
4011;SDS011;2020;48.682;9.024;2023-06-10T12:55:44;3.07;;;3.07;;
4011;SDS011;2020;48.682;9.024;2023-06-10T12:58:12;3.50;;;3.40;;
4011;SDS011;2020;48.682;9.024;2023-06-10T13:00:38;3.87;;;3.77;;
4011;SDS011;2020;48.682;9.024;2023-06-10T13:03:04;3.47;;;3.37;;
4011;SDS011;2020;48.682;9.024;2023-06-10T13:05:33;3.77;;;3.67;;
4011;SDS011;2020;48.682;9.024;2023-06-10T13:07:59;3.60;;;3.50;;
4011;SDS011;2020;48.682;9.024;2023-06-10T13:10:24;4.03;;;3.90;;
4011;SDS011;2020;48.682;9.024;2023-06-10T13:12:50;3.30;;;3.20;;
4011;SDS011;2020;48.682;9.024;2023-06-10T13:15:16;4.00;;;3.90;;
4011;SDS011;2020;48.682;9.024;2023-06-10T13:17:45;4.00;;;3.80;;
4011;SDS011;2020;48.682;9.024;2023-06-10T13:20:14;4.70;;;4.50;;
4011;SDS011;2020;48.682;9.024;2023-06-10T13:22:43;3.73;;;3.63;;
4011;SDS011;2020;48.682;9.024;2023-06-10T13:25:08;3.80;;;3.70;;
4011;SDS011;2020;48.682;9.024;2023-06-10T13:27:35;3.80;;;3.60;;
4011;SDS011;2020;48.682;9.024;2023-06-10T13:30:03;3.93;;;3.83;;
4011;SDS011;2020;48.682;9.024;2023-06-10T13:32:30;3.63;;;3.53;;
4011;SDS011;2020;48.682;9.024;2023-06-10T13:34:56;3.67;;;3.57;;
4011;SDS011;2020;48.682;9.024;2023-06-10T13:37:22;3.40;;;3.30;;
4011;SDS011;2020;48.682;9.024;2023-06-10T13:39:47;3.73;;;3.63;;
4011;SDS011;2020;48.682;9.024;2023-06-10T13:42:13;3.97;;;3.87;;
4011;SDS011;2020;48.682;9.024;2023-06-10T13:44:39;3.50;;;3.20;;
4011;SDS011;2020;48.682;9.024;2023-06-10T13:47:04;2.90;;;2.80;;
4011;SDS011;2020;48.682;9.024;2023-06-10T13:49:30;3.57;;;3.47;;
4011;SDS011;2020;48.682;9.024;2023-06-10T13:51:55;3.77;;;3.57;;
4011;SDS011;2020;48.682;9.024;2023-06-10T13:54:21;3.50;;;3.40;;
4011;SDS011;2020;48.682;9.024;2023-06-10T13:56:46;3.57;;;3.47;;
4011;SDS011;2020;48.682;9.024;2023-06-10T13:59:12;3.47;;;3.37;;
4011;SDS011;2020;48.682;9.024;2023-06-10T14:01:37;3.40;;;3.30;;
4011;SDS011;2020;48.682;9.024;2023-06-10T14:04:02;3.87;;;3.77;;
4011;SDS011;2020;48.682;9.024;2023-06-10T14:06:28;3.90;;;3.70;;
4011;SDS011;2020;48.682;9.024;2023-06-10T14:08:53;2.80;;;2.77;;
4011;SDS011;2020;48.682;9.024;2023-06-10T14:11:19;3.07;;;2.97;;
4011;SDS011;2020;48.682;9.024;2023-06-10T14:13:45;3.10;;;3.00;;
4011;SDS011;2020;48.682;9.024;2023-06-10T14:16:11;3.57;;;3.43;;
4011;SDS011;2020;48.682;9.024;2023-06-10T14:18:36;4.40;;;4.20;;
4011;SDS011;2020;48.682;9.024;2023-06-10T14:21:01;3.77;;;3.67;;
4011;SDS011;2020;48.682;9.024;2023-06-10T14:23:27;2.80;;;2.80;;
4011;SDS011;2020;48.682;9.024;2023-06-10T14:25:52;3.47;;;3.30;;
4011;SDS011;2020;48.682;9.024;2023-06-10T14:28:17;3.37;;;3.27;;
4011;SDS011;2020;48.682;9.024;2023-06-10T14:30:42;3.30;;;3.30;;
4011;SDS011;2020;48.682;9.024;2023-06-10T14:33:08;3.43;;;3.33;;
4011;SDS011;2020;48.682;9.024;2023-06-10T14:35:33;3.40;;;3.30;;
4011;SDS011;2020;48.682;9.024;2023-06-10T14:37:58;3.50;;;3.40;;
4011;SDS011;2020;48.682;9.024;2023-06-10T14:40:23;2.90;;;2.80;;
4011;SDS011;2020;48.682;9.024;2023-06-10T14:42:51;3.90;;;3.70;;
4011;SDS011;2020;48.682;9.024;2023-06-10T14:45:16;3.40;;;3.30;;
4011;SDS011;2020;48.682;9.024;2023-06-10T14:47:41;3.67;;;3.57;;
4011;SDS011;2020;48.682;9.024;2023-06-10T14:50:07;3.40;;;3.30;;
4011;SDS011;2020;48.682;9.024;2023-06-10T14:52:32;2.93;;;2.83;;
4011;SDS011;2020;48.682;9.024;2023-06-10T14:54:58;3.20;;;3.10;;
4011;SDS011;2020;48.682;9.024;2023-06-10T14:57:23;3.80;;;3.70;;
4011;SDS011;2020;48.682;9.024;2023-06-10T14:59:48;3.53;;;3.43;;
4011;SDS011;2020;48.682;9.024;2023-06-10T15:02:13;3.83;;;3.73;;
4011;SDS011;2020;48.682;9.024;2023-06-10T15:04:39;3.73;;;3.53;;
4011;SDS011;2020;48.682;9.024;2023-06-10T15:07:04;3.37;;;3.27;;
4011;SDS011;2020;48.682;9.024;2023-06-10T15:09:30;3.13;;;3.03;;
4011;SDS011;2020;48.682;9.024;2023-06-10T15:11:56;3.80;;;3.70;;
4011;SDS011;2020;48.682;9.024;2023-06-10T15:14:22;3.10;;;2.97;;
4011;SDS011;2020;48.682;9.024;2023-06-10T15:16:47;3.00;;;2.87;;
4011;SDS011;2020;48.682;9.024;2023-06-10T15:19:12;3.23;;;3.13;;
4011;SDS011;2020;48.682;9.024;2023-06-10T15:21:37;3.50;;;3.40;;
4011;SDS011;2020;48.682;9.024;2023-06-10T15:24:03;3.73;;;3.47;;
4011;SDS011;2020;48.682;9.024;2023-06-10T15:26:28;3.17;;;3.07;;
4011;SDS011;2020;48.682;9.024;2023-06-10T15:28:54;3.07;;;2.97;;
4011;SDS011;2020;48.682;9.024;2023-06-10T15:31:19;3.10;;;3.00;;
4011;SDS011;2020;48.682;9.024;2023-06-10T15:33:44;3.90;;;3.80;;